Time;durP1;ratioP1;P1;durP2;ratioP2;P2;SDS_P1;SDS_P2;PMS_P1;PMS_P2;Temp;Humidity;BMP_temperature;BMP_pressure;BME280_temperature;BME280_humidity;BME280_pressure;Samples;Min_cycle;Max_cycle;Signal;HPM_P1;HPM_P2
2021/12/27 00:01:47;;;;;;;23.98;16.30;;;;;;;12.38;67.18;100066.94;4973495;28;20038;-79
2021/12/27 00:04:32;;;;;;;29.73;19.17;;;;;;;12.40;67.87;100059.97;4973013;28;20046;-77
2021/12/27 00:07:17;;;;;;;27.85;16.25;;;;;;;12.41;68.19;100055.31;4980626;28;20046;-78
2021/12/27 00:10:03;;;;;;;;;;;;;;;12.40;69.10;100049.06;4987596;28;20042;-78
2021/12/27 00:12:47;;;;;;;20.80;13.88;;;;;;;12.40;69.38;100048.28;4963448;28;19914;-77
2021/12/27 00:15:33;;;;;;;20.92;12.68;;;;;;;12.41;69.77;100055.31;4960991;28;20113;-78
2021/12/27 00:18:18;;;;;;;22.70;13.82;;;;;;;12.38;70.03;100056.81;4959694;28;20440;-78
2021/12/27 00:21:03;;;;;;;;;;;;;;;12.43;70.24;100042.94;4959301;28;20050;-77
2021/12/27 00:23:48;;;;;;;29.38;18.23;;;;;;;12.38;68.25;100050.56;4971973;28;19922;-78
2021/12/27 00:26:33;;;;;;;;;;;;;;;12.42;68.24;100054.19;4959728;28;20042;-77
2021/12/27 00:29:18;;;;;;;33.90;20.35;;;;;;;12.39;67.45;100041.25;4980603;28;19913;-78
2021/12/27 00:32:04;;;;;;;17.63;12.07;;;;;;;12.42;68.67;100051.47;4975838;28;20530;-78
2021/12/27 00:34:48;;;;;;;36.45;21.58;;;;;;;12.38;68.10;100043.19;4973329;28;20039;-78
2021/12/27 00:37:34;;;;;;;23.00;15.10;;;;;;;12.35;65.44;100045.78;4968959;28;20038;-77
2021/12/27 00:40:19;;;;;;;24.25;16.48;;;;;;;12.39;66.44;100052.16;4974006;28;20046;-78
2021/12/27 00:43:04;;;;;;;;;;;;;;;12.42;66.32;100046.00;4940347;29;20043;-78
2021/12/27 00:45:49;;;;;;;28.50;17.00;;;;;;;12.37;66.52;100048.97;4967369;28;19918;-77
2021/12/27 00:48:33;;;;;;;31.75;17.65;;;;;;;12.36;67.70;100042.72;4973643;28;20050;-77
2021/12/27 00:51:18;;;;;;;17.70;11.10;;;;;;;12.40;68.80;100045.56;4960372;28;20043;-78
2021/12/27 00:54:02;;;;;;;24.02;14.63;;;;;;;12.38;69.04;100045.91;4958794;28;20066;-78
2021/12/27 00:56:47;;;;;;;;;;;;;;;12.39;67.85;100046.72;4943664;29;20031;-78
2021/12/27 00:59:32;;;;;;;29.23;17.13;;;;;;;12.37;67.90;100038.06;4953185;28;19914;-78
2021/12/27 01:02:17;;;;;;;;;;;;;;;12.41;68.91;100049.88;4962762;28;20074;-78
2021/12/27 01:05:02;;;;;;;23.25;14.73;;;;;;;12.40;69.42;100043.63;4972135;28;19913;-77
2021/12/27 01:07:47;;;;;;;14.10;8.55;;;;;;;12.38;70.59;100035.00;4960206;28;20047;-78
2021/12/27 01:11:01;;;;;;;13.10;8.73;;;;;;;12.40;71.41;100031.91;4958082;28;20053;-77
2021/12/27 01:13:58;;;;;;;27.17;16.48;;;;;;;12.37;69.58;100038.06;4972212;28;20047;-77
2021/12/27 01:16:44;;;;;;;28.20;17.70;;;;;;;12.37;68.54;100043.53;4972726;28;20500;-77
2021/12/27 01:19:29;;;;;;;29.70;17.77;;;;;;;12.35;67.23;100051.25;4948003;28;20046;-77
2021/12/27 01:22:16;;;;;;;25.05;15.43;;;;;;;12.30;65.28;100063.19;4947159;28;20051;-78
2021/12/27 01:25:03;;;;;;;34.38;21.08;;;;;;;12.31;63.82;100066.69;4958613;28;20050;-78
2021/12/27 01:27:47;;;;;;;22.63;14.93;;;;;;;12.24;65.12;100066.50;4957937;28;20034;-78
2021/12/27 01:30:37;;;;;;;;;;;;;;;12.28;66.97;100076.38;4958724;28;20039;-77
2021/12/27 01:33:23;;;;;;;30.67;17.85;;;;;;;12.24;64.74;100082.84;4961427;28;20394;-77
2021/12/27 01:36:09;;;;;;;27.25;18.10;;;;;;;12.24;64.76;100082.84;4961962;28;20038;-77
2021/12/27 01:38:53;;;;;;;;;;;;;;;12.25;64.48;100089.88;4976358;28;20035;-78
2021/12/27 01:41:38;;;;;;;30.80;18.40;;;;;;;12.24;65.40;100105.44;4976837;28;19914;-77
2021/12/27 01:44:23;;;;;;;20.00;12.55;;;;;;;12.21;65.90;100100.66;4961281;28;20043;-78
2021/12/27 01:47:09;;;;;;;16.30;9.63;;;;;;;12.23;68.22;100105.78;4964262;28;20043;-77
2021/12/27 01:49:54;;;;;;;25.67;15.93;;;;;;;12.23;68.95;100105.78;4962214;28;20047;-78
2021/12/27 01:52:39;;;;;;;21.67;12.98;;;;;;;12.23;69.15;100114.75;4966253;28;20051;-78
2021/12/27 01:55:24;;;;;;;24.88;14.13;;;;;;;12.22;68.11;100096.00;4976392;28;20043;-78
2021/12/27 01:58:09;;;;;;;;;;;;;;;12.25;66.77;100106.22;4973147;28;20507;-78
2021/12/27 02:00:57;;;;;;;26.90;16.65;;;;;;;12.22;65.88;100101.47;4975459;28;19914;-78
2021/12/27 02:03:44;;;;;;;27.80;16.88;;;;;;;12.21;66.16;100091.69;4950958;28;20050;-78
2021/12/27 02:06:29;;;;;;;26.50;17.17;;;;;;;12.19;66.46;100102.16;4962577;28;20042;-77
2021/12/27 02:09:14;;;;;;;22.88;14.20;;;;;;;12.18;66.48;100101.38;4956874;28;20038;-77
2021/12/27 02:11:58;;;;;;;27.25;14.50;;;;;;;12.16;66.01;100091.91;4976566;28;20058;-77
2021/12/27 02:14:43;;;;;;;23.73;14.35;;;;;;;12.15;64.22;100098.50;4989430;28;20038;-78
2021/12/27 02:17:28;;;;;;;28.08;16.85;;;;;;;12.09;63.37;100087.03;4975452;28;20484;-77
2021/12/27 02:20:18;;;;;;;;;;;;;;;12.12;63.99;100091.81;4960786;28;20047;-78
2021/12/27 02:23:10;;;;;;;25.70;14.68;;;;;;;12.11;64.91;100083.97;4960120;28;19913;-77
2021/12/27 02:25:55;;;;;;;26.05;16.38;;;;;;;12.10;65.56;100074.19;4980772;28;20051;-77
2021/12/27 02:28:40;;;;;;;;;;;;;;;12.12;66.02;100080.91;4975473;28;20043;-77
2021/12/27 02:31:27;;;;;;;23.15;14.40;;;;;;;12.10;66.51;100085.09;4974631;28;19914;-77
2021/12/27 02:34:12;;;;;;;16.83;10.65;;;;;;;12.12;68.29;100077.38;4965186;28;20054;-77
2021/12/27 02:36:57;;;;;;;;;;;;;;;12.16;70.08;100086.47;4975871;28;20034;-79
2021/12/27 02:39:44;;;;;;;31.67;18.10;;;;;;;12.11;65.98;100083.97;4958815;28;19918;-78
2021/12/27 02:42:29;;;;;;;31.05;18.83;;;;;;;12.07;63.69;100074.91;4968016;28;20443;-77
2021/12/27 02:45:13;;;;;;;22.42;15.13;;;;;;;12.04;62.88;100061.97;4950114;28;20046;-77
2021/12/27 02:47:58;;;;;;;24.40;13.93;;;;;;;12.05;65.31;100061.59;4966529;28;20043;-77
2021/12/27 02:50:44;;;;;;;;;;;;;;;12.07;65.19;100066.72;4952562;28;20046;-78
2021/12/27 02:53:29;;;;;;;26.38;15.25;;;;;;;12.04;65.74;100056.50;4963706;28;19914;-78
2021/12/27 02:56:14;;;;;;;18.90;12.57;;;;;;;12.03;66.57;100054.91;4960540;28;20415;-78
2021/12/27 02:58:59;;;;;;;23.75;13.23;;;;;;;12.06;66.23;100054.22;4974752;28;20046;-78
2021/12/27 03:01:43;;;;;;;26.95;16.15;;;;;;;12.04;65.58;100048.34;4959882;28;20471;-78
2021/12/27 03:04:34;;;;;;;24.17;15.50;;;;;;;12.06;66.47;100041.41;4974406;28;20519;-77
2021/12/27 03:07:19;;;;;;;22.35;14.55;;;;;;;12.06;68.09;100044.13;4974415;28;20046;-77
2021/12/27 03:10:04;;;;;;;18.33;11.83;;;;;;;12.04;67.92;100034.72;4963110;28;20039;-77
2021/12/27 03:12:50;;;;;;;29.52;16.80;;;;;;;12.05;67.18;100036.28;4955334;29;20279;-77
2021/12/27 03:15:35;;;;;;;27.25;16.13;;;;;;;12.03;65.47;100050.25;4940664;29;20047;-77
2021/12/27 03:18:20;;;;;;;18.30;11.43;;;;;;;12.04;66.42;100051.06;4964888;28;20046;-77
2021/12/27 03:21:06;;;;;;;25.40;15.68;;;;;;;12.06;67.36;100049.56;4959353;28;20047;-77
2021/12/27 03:23:51;;;;;;;28.80;16.55;;;;;;;12.02;67.20;100047.88;4974121;28;20054;-78
2021/12/27 03:26:36;;;;;;;20.33;11.13;;;;;;;12.01;69.24;100049.78;4950214;28;20050;-78
2021/12/27 03:29:21;;;;;;;;;;;;;;;11.99;70.50;100058.31;4974636;28;20054;-77
2021/12/27 03:32:06;;;;;;;21.40;11.32;;;;;;;12.00;71.20;100061.81;4945420;28;19913;-77
2021/12/27 03:34:57;;;;;;;18.08;10.35;;;;;;;11.98;71.23;100064.91;4963031;28;20688;-78
2021/12/27 03:37:47;;;;;;;41.13;17.42;;;;;;;12.02;68.96;100050.59;4974315;28;20042;-78
2021/12/27 03:40:32;;;;;;;20.67;12.25;;;;;;;12.00;69.26;100062.63;4957832;28;20046;-77
2021/12/27 03:43:17;;;;;;;20.48;9.80;;;;;;;12.02;69.63;100066.94;4963183;28;20042;-78
2021/12/27 03:46:02;;;;;;;23.42;13.82;;;;;;;11.98;70.37;100061.38;4974141;28;20055;-78
2021/12/27 03:48:47;;;;;;;17.25;10.63;;;;;;;12.00;68.84;100054.44;4973626;28;20034;-77
2021/12/27 03:51:32;;;;;;;16.42;9.55;;;;;;;12.02;69.90;100059.56;4963392;28;20055;-77
2021/12/27 03:54:17;;;;;;;27.40;14.50;;;;;;;12.01;69.42;100063.41;4958528;28;20047;-77
2021/12/27 03:57:02;;;;;;;24.88;13.85;;;;;;;11.98;69.41;100053.22;4959346;28;20046;-77
2021/12/27 03:59:53;;;;;;;31.65;18.77;;;;;;;11.96;67.93;100053.53;4962781;28;20034;-78
2021/12/27 04:02:38;;;;;;;22.90;12.75;;;;;;;11.93;68.93;100042.53;4959219;28;20515;-78
2021/12/27 04:05:23;;;;;;;27.08;16.73;;;;;;;11.91;68.54;100040.16;4973496;28;20050;-78
2021/12/27 04:08:11;;;;;;;28.02;16.13;;;;;;;11.90;66.69;100035.81;4973741;28;20046;-78
2021/12/27 04:10:56;;;;;;;34.30;20.20;;;;;;;11.88;66.07;100029.94;4973478;28;20042;-78
2021/12/27 04:13:42;;;;;;;15.80;9.90;;;;;;;11.90;67.32;100030.38;4927576;29;20043;-78
2021/12/27 04:16:27;;;;;;;22.35;14.43;;;;;;;11.91;67.98;100031.97;4957711;28;20098;-78
2021/12/27 04:19:15;;;;;;;14.48;8.63;;;;;;;11.92;69.29;100044.47;4939744;28;20047;-78
2021/12/27 04:22:00;;;;;;;21.52;11.00;;;;;;;11.92;71.12;100044.47;4970663;28;20039;-78
2021/12/27 04:24:45;;;;;;;25.58;13.82;;;;;;;11.91;69.32;100052.97;4963177;28;20042;-78
2021/12/27 04:27:30;;;;;;;21.73;13.45;;;;;;;11.89;68.57;100045.13;4961467;28;20043;-78
2021/12/27 04:30:15;;;;;;;;;;;;;;;11.89;66.98;100034.22;4945620;28;20043;-78
2021/12/27 04:32:59;;;;;;;30.80;17.55;;;;;;;11.86;66.08;100047.75;4963011;28;19914;-77
2021/12/27 04:35:44;;;;;;;;;;;;;;;11.88;68.71;100054.47;4948768;28;20512;-78
2021/12/27 04:38:29;;;;;;;34.33;19.13;;;;;;;11.82;67.18;100063.19;4960431;28;19921;-78
2021/12/27 04:41:15;;;;;;;;;;;;;;;11.83;65.85;100062.84;4965254;28;20046;-78
2021/12/27 04:43:59;;;;;;;;;;;;;;;11.81;65.38;100067.03;4948089;28;19914;-78
2021/12/27 04:46:44;;;;;;;26.13;15.23;;;;;;;11.80;66.64;100071.69;4958606;28;19918;-77
2021/12/27 04:49:30;;;;;;;24.02;14.07;;;;;;;11.81;68.84;100076.00;4958164;28;20050;-77
2021/12/27 04:52:14;;;;;;;24.42;15.90;;;;;;;11.79;67.25;100074.75;4958198;28;20042;-77
2021/12/27 04:55:00;;;;;;;17.02;11.13;;;;;;;11.77;66.62;100075.09;4972578;28;20039;-78
2021/12/27 04:57:44;;;;;;;12.65;8.07;;;;;;;11.80;68.56;100079.06;4973232;28;20043;-77
2021/12/27 05:00:29;;;;;;;22.42;12.93;;;;;;;11.80;68.13;100079.88;4960055;28;20039;-78
2021/12/27 05:03:14;;;;;;;21.70;14.10;;;;;;;11.81;67.90;100072.50;4972325;28;20483;-78
2021/12/27 05:05:58;;;;;;;;;;;;;;;11.81;69.19;100067.03;4973263;28;20042;-77
2021/12/27 05:08:43;;;;;;;18.20;11.68;;;;;;;11.79;69.84;100072.81;4948466;28;19914;-77
2021/12/27 05:11:30;;;;;;;16.75;9.63;;;;;;;11.76;69.96;100072.72;4943009;28;20039;-77
2021/12/27 05:14:15;;;;;;;18.98;12.82;;;;;;;11.71;69.53;100076.41;4960403;28;20046;-77
2021/12/27 05:17:00;;;;;;;19.33;12.98;;;;;;;11.68;68.49;100089.94;4964870;28;20436;-77
2021/12/27 05:19:44;;;;;;;;;;;;;;;11.73;68.18;100089.75;4973089;28;20047;-78
2021/12/27 05:22:29;;;;;;;22.67;14.32;;;;;;;11.69;67.81;100092.28;4957112;28;19914;-77
2021/12/27 05:25:16;;;;;;;;;;;;;;;11.72;67.46;100094.34;4956323;28;20668;-77
2021/12/27 05:28:01;;;;;;;22.70;14.00;;;;;;;11.70;68.41;100085.72;4976693;28;19918;-78
2021/12/27 05:30:48;;;;;;;21.98;14.02;;;;;;;11.69;67.65;100078.69;4958591;28;20038;-77
2021/12/27 05:33:32;;;;;;;22.65;14.98;;;;;;;11.69;67.32;100078.69;4956527;28;20678;-77
2021/12/27 05:36:18;;;;;;;15.38;10.60;;;;;;;11.71;68.40;100079.16;4941289;29;20501;-78
2021/12/27 05:39:03;;;;;;;14.98;9.98;;;;;;;11.69;67.53;100075.16;4953530;28;20497;-77
2021/12/27 05:41:49;;;;;;;14.77;9.57;;;;;;;11.71;69.14;100081.06;4971980;28;20042;-77
2021/12/27 05:44:34;;;;;;;19.48;12.30;;;;;;;11.70;69.61;100080.28;4972441;28;20046;-77
2021/12/27 05:47:19;;;;;;;17.73;12.45;;;;;;;11.69;70.06;100078.69;4972487;28;20062;-77
2021/12/27 05:50:06;;;;;;;18.10;11.68;;;;;;;11.71;69.01;100086.50;4947681;28;20054;-77
2021/12/27 05:52:51;;;;;;;25.23;16.60;;;;;;;11.69;67.25;100083.31;4943868;28;20043;-77
2021/12/27 05:55:36;;;;;;;21.88;14.85;;;;;;;11.68;68.13;100088.00;4958702;28;20051;-77
2021/12/27 05:58:21;;;;;;;21.95;14.05;;;;;;;11.68;68.11;100081.75;4929785;29;20043;-77
2021/12/27 06:01:06;;;;;;;;;;;;;;;11.69;67.73;100089.56;4957000;28;20051;-78
2021/12/27 06:03:50;;;;;;;25.70;15.07;;;;;;;11.67;68.10;100094.56;4971322;28;19917;-77
2021/12/27 06:06:36;;;;;;;23.20;13.70;;;;;;;11.67;68.10;100091.84;4958945;28;20039;-77
2021/12/27 06:09:21;;;;;;;17.20;11.05;;;;;;;11.68;70.03;100100.81;4961151;28;20047;-77
2021/12/27 06:12:06;;;;;;;19.20;10.60;;;;;;;11.70;71.72;100104.78;4971820;28;20043;-78
2021/12/27 06:14:51;;;;;;;16.40;10.40;;;;;;;11.71;71.03;100119.19;4957513;28;20042;-77
2021/12/27 06:17:37;;;;;;;10.55;6.60;;;;;;;11.69;71.60;100126.91;4958955;28;20038;-78
2021/12/27 06:20:22;;;;;;;13.60;9.10;;;;;;;11.66;72.15;100127.59;4962881;28;20707;-77
2021/12/27 06:23:07;;;;;;;18.00;11.07;;;;;;;11.66;72.00;100122.94;4974774;28;20487;-78
2021/12/27 06:25:52;;;;;;;18.13;11.07;;;;;;;11.64;71.91;100111.56;4964842;28;20047;-77
2021/12/27 06:28:36;;;;;;;19.33;12.45;;;;;;;11.65;71.89;100110.44;4949329;28;20043;-78
2021/12/27 06:31:22;;;;;;;16.92;9.93;;;;;;;11.62;70.39;100119.31;4947544;28;20039;-77
2021/12/27 06:34:07;;;;;;;25.13;15.82;;;;;;;11.62;69.16;100123.94;4948245;28;20054;-78
2021/12/27 06:36:52;;;;;;;25.15;14.77;;;;;;;11.60;68.84;100118.81;4939310;28;20042;-78
2021/12/27 06:39:37;;;;;;;32.38;22.58;;;;;;;11.59;67.75;100123.47;4973927;28;20043;-77
2021/12/27 06:42:22;;;;;;;21.23;15.02;;;;;;;11.59;68.10;100123.47;4953449;28;20043;-78
2021/12/27 06:45:07;;;;;;;28.30;17.25;;;;;;;11.58;68.38;100130.06;4973253;28;20051;-77
2021/12/27 06:47:52;;;;;;;18.38;12.35;;;;;;;11.58;67.89;100132.78;4983046;28;20043;-77
2021/12/27 06:50:36;;;;;;;26.52;14.25;;;;;;;11.58;66.95;100143.66;4966703;28;20039;-77
2021/12/27 06:53:21;;;;;;;24.02;15.50;;;;;;;11.61;67.83;100138.69;4961911;28;20038;-78
2021/12/27 06:56:06;;;;;;;21.55;12.48;;;;;;;11.58;67.74;100140.16;4949839;28;20039;-78
2021/12/27 06:58:51;;;;;;;;;;;;;;;11.60;69.01;100146.06;4975348;28;20039;-77
2021/12/27 07:01:36;;;;;;;13.77;8.93;;;;;;;11.59;71.47;100139.03;4964318;28;20391;-78
2021/12/27 07:04:21;;;;;;;13.50;8.35;;;;;;;11.61;71.79;100139.50;4956138;28;20412;-78
2021/12/27 07:07:06;;;;;;;14.07;9.02;;;;;;;11.59;70.90;100139.03;4966589;28;20540;-78
2021/12/27 07:09:51;;;;;;;;;;;;;;;11.61;70.92;100130.53;4969690;28;20069;-78
2021/12/27 07:12:36;;;;;;;22.75;14.35;;;;;;;11.56;70.33;100131.53;4960971;28;19913;-78
2021/12/27 07:15:21;;;;;;;14.15;8.90;;;;;;;11.57;71.70;100131.22;4964656;28;20765;-78
2021/12/27 07:18:06;;;;;;;16.58;9.98;;;;;;;11.59;72.10;100128.13;4946724;28;20416;-78
2021/12/27 07:20:52;;;;;;;22.73;12.88;;;;;;;11.58;70.04;100132.78;4974042;28;20050;-78
2021/12/27 07:23:37;;;;;;;20.02;12.45;;;;;;;11.56;70.71;100140.50;4971882;28;20051;-78
2021/12/27 07:26:21;;;;;;;29.00;15.60;;;;;;;11.55;70.39;100136.19;4959867;28;20038;-78
2021/12/27 07:29:06;;;;;;;30.67;16.13;;;;;;;11.50;70.30;100149.22;4974725;28;20464;-80
2021/12/27 07:31:51;;;;;;;50.22;20.58;;;;;;;8.26;70.27;100144.06;4979609;28;20047;-81
2021/12/27 07:34:37;;;;;;;55.88;21.67;;;;;;;7.86;72.40;100139.75;4955333;28;20046;-80
2021/12/27 07:37:22;;;;;;;39.45;17.55;;;;;;;7.48;73.93;100136.66;4963202;28;20038;-79
2021/12/27 07:40:08;;;;;;;41.25;20.33;;;;;;;7.56;73.00;100133.22;4960835;28;20058;-80
2021/12/27 07:42:53;;;;;;;48.55;20.55;;;;;;;7.36;73.54;100136.44;4972205;28;20035;-80
2021/12/27 07:45:38;;;;;;;34.53;15.35;;;;;;;6.97;75.00;100132.47;4958509;28;20046;-80
2021/12/27 07:48:23;;;;;;;;;;;;;;;7.23;75.27;100138.06;4962909;28;20050;-80
2021/12/27 07:51:07;;;;;;;48.83;17.55;;;;;;;7.03;75.62;100139.34;4986144;28;19914;-84
2021/12/27 07:53:52;;;;;;;;;;;;;;;7.26;75.66;100146.38;4966979;28;20053;-84
2021/12/27 07:56:40;;;;;;;65.82;33.58;;;;;;;7.32;75.31;100142.44;4962469;28;19915;-83
2021/12/27 07:59:25;;;;;;;38.00;20.08;;;;;;;6.59;78.10;100153.59;4974100;28;20047;-83
2021/12/27 08:02:13;;;;;;;28.27;15.93;;;;;;;6.51;80.02;100146.16;4972226;28;20070;-84
2021/12/27 08:04:58;;;;;;;47.38;19.05;;;;;;;6.17;80.42;100145.78;4963914;28;20487;-83
2021/12/27 08:07:44;;;;;;;51.78;21.70;;;;;;;6.01;80.81;100148.78;4968071;28;20053;-83
2021/12/27 08:10:29;;;;;;;37.03;16.98;;;;;;;6.16;81.35;100154.97;4963397;28;20047;-84
2021/12/27 08:13:15;;;;;;;38.15;20.20;;;;;;;6.09;81.21;100141.09;4968481;28;20051;-84
2021/12/27 08:16:00;;;;;;;25.17;14.35;;;;;;;6.56;80.05;100147.97;4962003;28;20683;-83
2021/12/27 08:18:46;;;;;;;26.15;15.70;;;;;;;6.92;77.94;100146.09;4963967;28;20043;-83
2021/12/27 08:21:33;;;;;;;30.75;18.58;;;;;;;7.16;76.89;100132.31;4962660;28;20049;-84
2021/12/27 08:24:18;;;;;;;28.58;17.35;;;;;;;7.43;75.13;100129.47;4963395;28;20046;-85
2021/12/27 08:27:03;;;;;;;26.40;15.02;;;;;;;7.60;75.10;100124.19;4967560;28;20038;-85
2021/12/27 08:29:48;;;;;;;31.80;18.83;;;;;;;7.67;74.59;100127.22;4961523;28;20636;-85
2021/12/27 08:32:36;;;;;;;23.27;13.50;;;;;;;7.72;73.56;100123.59;4956707;28;20053;-83
2021/12/27 08:35:21;;;;;;;28.83;17.77;;;;;;;7.73;73.86;100134.09;4966912;28;20500;-84
2021/12/27 08:38:06;;;;;;;24.33;15.15;;;;;;;7.79;74.03;100144.78;4952915;28;20488;-84
2021/12/27 08:40:51;;;;;;;29.23;18.05;;;;;;;7.87;73.52;100152.19;4966325;28;20042;-85
2021/12/27 08:43:36;;;;;;;27.83;16.25;;;;;;;7.74;73.46;100151.94;4964960;28;20035;-85
2021/12/27 08:46:21;;;;;;;23.90;14.93;;;;;;;8.07;73.55;100162.47;4952359;28;20531;-81
2021/12/27 08:49:06;;;;;;;30.40;18.13;;;;;;;7.71;74.26;100174.22;4970889;28;20058;-82
2021/12/27 08:51:51;;;;;;;28.92;16.00;;;;;;;7.50;75.99;100175.03;4981607;28;20042;-83
2021/12/27 08:54:36;;;;;;;41.97;21.42;;;;;;;7.51;75.98;100180.13;4951642;28;20070;-82
2021/12/27 08:57:21;;;;;;;33.25;17.83;;;;;;;7.72;75.91;100188.53;4944998;29;20039;-82
2021/12/27 09:00:09;;;;;;;30.92;17.60;;;;;;;7.46;75.90;100201.09;4949569;28;20420;-81
2021/12/27 09:02:54;;;;;;;34.25;20.23;;;;;;;7.26;76.57;100205.09;4965861;28;20061;-81
2021/12/27 09:05:40;;;;;;;26.15;16.63;;;;;;;7.46;76.67;100212.72;4964352;28;20043;-81
2021/12/27 09:08:25;;;;;;;39.05;22.52;;;;;;;7.08;77.55;100230.34;4968967;28;20047;-82
2021/12/27 09:11:10;;;;;;;28.50;16.60;;;;;;;7.04;78.67;100221.25;4961181;28;20054;-82
2021/12/27 09:13:55;;;;;;;30.55;17.67;;;;;;;6.94;78.34;100222.28;4948235;28;20038;-82
2021/12/27 09:16:40;;;;;;;105.25;23.75;;;;;;;6.74;80.29;100223.50;4950086;28;20046;-81
2021/12/27 09:19:25;;;;;;;34.70;19.25;;;;;;;6.68;80.23;100222.00;4970378;28;20043;-82
2021/12/27 09:22:13;;;;;;;31.52;17.80;;;;;;;6.57;80.70;100226.00;4949553;28;20058;-82
2021/12/27 09:24:58;;;;;;;39.03;23.55;;;;;;;6.77;80.77;100231.00;4952220;28;20054;-83
2021/12/27 09:27:43;;;;;;;39.67;20.33;;;;;;;6.81;79.69;100234.69;4960195;28;20461;-79
2021/12/27 09:30:28;;;;;;;37.13;19.67;;;;;;;6.37;82.56;100232.59;4957139;28;20046;-81
2021/12/27 09:33:13;;;;;;;41.25;21.00;;;;;;;6.49;83.40;100229.41;4965632;28;20046;-79
2021/12/27 09:35:58;;;;;;;49.47;22.88;;;;;;;6.49;83.40;100224.00;4974065;28;20050;-81
2021/12/27 09:38:45;;;;;;;54.72;27.23;;;;;;;6.83;82.36;100218.97;4963980;28;20045;-82
2021/12/27 09:41:30;;;;;;;54.78;26.52;;;;;;;7.10;81.16;100212.72;4960228;28;20444;-81
2021/12/27 09:44:15;;;;;;;45.55;22.58;;;;;;;6.97;81.99;100218.16;4958457;28;20074;-81
2021/12/27 09:47:00;;;;;;;47.38;22.33;;;;;;;7.17;80.32;100212.28;4956654;28;20512;-79
2021/12/27 09:49:47;;;;;;;42.78;19.95;;;;;;;7.19;79.68;100216.31;4977948;28;20526;-81
2021/12/27 09:52:33;;;;;;;52.15;27.25;;;;;;;6.97;81.04;100213.53;4947191;28;20043;-84
2021/12/27 09:55:18;;;;;;;49.67;27.80;;;;;;;7.46;79.74;100209.22;4972552;28;20050;-82
2021/12/27 09:58:05;;;;;;;42.00;21.80;;;;;;;7.39;80.78;100206.94;4952267;29;20039;-83
2021/12/27 10:00:52;;;;;;;46.85;25.67;;;;;;;7.60;78.64;100199.94;4946746;28;20050;-83
2021/12/27 10:03:55;;;;;;;38.05;21.73;;;;;;;7.95;78.44;100205.56;4965540;28;20373;-83
2021/12/27 10:06:41;;;;;;;36.42;22.67;;;;;;;8.24;76.95;100203.16;4954178;28;20054;-84
2021/12/27 10:09:26;;;;;;;39.63;22.40;;;;;;;8.42;75.71;100194.03;4963430;28;20058;-84
2021/12/27 10:12:10;;;;;;;41.58;22.70;;;;;;;8.45;75.26;100179.84;4972777;28;20046;-83
2021/12/27 10:15:06;;;;;;;28.50;18.30;;;;;;;8.72;73.58;100167.97;4970066;28;20070;-84
2021/12/27 10:17:52;;;;;;;26.92;16.30;;;;;;;9.00;73.02;100165.75;4980902;28;20057;-83
2021/12/27 10:20:37;;;;;;;37.60;19.20;;;;;;;9.23;71.95;100156.38;4953997;28;20043;-83
2021/12/27 10:23:23;;;;;;;35.00;19.42;;;;;;;9.04;72.24;100136.13;4946560;28;20058;-83
2021/12/27 10:26:07;;;;;;;;;;;;;;;8.74;73.50;100125.06;4962687;28;20046;-83
2021/12/27 10:29:13;;;;;;;31.00;18.30;;;;;;;8.95;73.63;100136.09;4960674;28;19917;-83
2021/12/27 10:32:09;;;;;;;31.00;21.33;;;;;;;8.78;73.89;100136.09;4970460;28;20050;-82
2021/12/27 10:35:04;;;;;;;32.70;22.58;;;;;;;8.82;73.40;100137.03;4941112;28;20051;-83
2021/12/27 10:37:50;;;;;;;29.87;18.67;;;;;;;9.03;71.87;100138.03;4963023;28;20039;-82
2021/12/27 10:40:38;;;;;;;27.85;18.00;;;;;;;9.46;70.41;100135.25;4952978;28;20097;-83
2021/12/27 10:43:48;;;;;;;30.02;18.38;;;;;;;9.32;70.82;100146.31;4966244;28;20054;-83
2021/12/27 10:46:37;;;;;;;31.27;20.10;;;;;;;9.42;70.08;100137.03;4981738;28;20542;-85
2021/12/27 10:49:44;;;;;;;29.20;18.20;;;;;;;9.51;70.33;100145.97;4964580;28;20047;-84
2021/12/27 10:52:50;;;;;;;31.02;21.17;;;;;;;9.41;70.61;100138.94;4968904;28;20043;-83
2021/12/27 10:55:40;;;;;;;31.90;21.98;;;;;;;9.27;70.84;100141.03;4971246;28;20043;-82
2021/12/27 10:58:28;;;;;;;28.48;19.15;;;;;;;10.02;68.83;100136.88;4968749;28;20040;-82
2021/12/27 11:01:18;;;;;;;28.80;18.75;;;;;;;10.22;67.66;100135.38;4970552;28;20042;-83
2021/12/27 11:04:03;;;;;;;26.58;18.75;;;;;;;10.36;67.37;100130.53;4972710;28;20046;-82
2021/12/27 11:06:49;;;;;;;28.50;18.75;;;;;;;10.25;66.99;100127.41;4973284;28;20046;-84
2021/12/27 11:09:38;;;;;;;30.20;20.92;;;;;;;10.32;67.69;100120.63;4977801;28;20042;-84
2021/12/27 11:12:22;;;;;;;32.88;20.77;;;;;;;10.45;67.65;100116.91;4982199;28;20043;-84
2021/12/27 11:15:10;;;;;;;31.40;19.20;;;;;;;10.82;66.15;100126.88;4968207;28;20043;-83
2021/12/27 11:17:55;;;;;;;27.73;19.63;;;;;;;10.74;66.53;100119.59;4966196;28;20038;-83
2021/12/27 11:20:52;;;;;;;33.22;21.35;;;;;;;10.69;66.05;100117.84;4966324;28;20038;-85
2021/12/27 11:23:38;;;;;;;33.75;20.83;;;;;;;10.31;67.30;100116.34;4965866;28;20046;-85
2021/12/27 11:26:36;;;;;;;28.80;19.77;;;;;;;10.27;68.34;100100.69;4964877;28;20035;-85
2021/12/27 11:29:22;;;;;;;30.52;18.85;;;;;;;10.57;67.20;100103.38;4950537;28;20095;-83
2021/12/27 11:32:17;;;;;;;26.75;18.60;;;;;;;10.76;67.11;100090.16;4977232;28;20043;-83
2021/12/27 11:35:09;;;;;;;31.42;19.88;;;;;;;11.60;64.38;100102.50;4955175;28;20039;-84
2021/12/27 11:37:56;;;;;;;29.70;18.58;;;;;;;11.28;64.82;100095.91;4989571;28;20039;-84
2021/12/27 11:40:47;;;;;;;29.30;20.27;;;;;;;10.71;67.08;100093.88;4947266;28;20046;-84
2021/12/27 11:43:56;;;;;;;31.80;20.30;;;;;;;10.60;67.80;100091.84;4967495;28;20411;-84
2021/12/27 11:46:47;;;;;;;33.70;20.55;;;;;;;9.94;70.20;100088.84;4960086;28;20051;-84
2021/12/27 11:49:36;;;;;;;34.90;21.95;;;;;;;9.86;70.87;100078.78;4945954;28;20054;-83
2021/12/27 11:52:29;;;;;;;36.88;22.52;;;;;;;9.58;72.93;100075.69;4960332;28;20657;-84
2021/12/27 11:55:20;;;;;;;37.72;22.23;;;;;;;9.93;71.26;100070.94;4963070;28;20047;-83
2021/12/27 11:58:05;;;;;;;36.00;21.50;;;;;;;10.01;70.90;100074.72;4961361;28;20500;-84
2021/12/27 12:00:50;;;;;;;31.05;16.90;;;;;;;9.68;71.67;100077.28;4965793;28;20053;-83
2021/12/27 12:03:39;;;;;;;32.83;18.42;;;;;;;9.79;71.76;100067.66;4970774;28;20038;-83
2021/12/27 12:06:42;;;;;;;36.28;24.02;;;;;;;9.82;71.32;100067.00;4958812;28;20039;-82
2021/12/27 12:09:28;;;;;;;35.78;23.40;;;;;;;9.43;72.73;100068.88;4957142;28;20047;-83
2021/12/27 12:12:14;;;;;;;40.63;24.60;;;;;;;9.60;71.90;100064.53;4959357;28;20050;-83
2021/12/27 12:15:01;;;;;;;39.42;25.08;;;;;;;9.36;73.09;100065.84;4963113;28;20062;-83
2021/12/27 12:17:49;;;;;;;35.75;24.02;;;;;;;9.34;73.99;100068.13;4955595;28;20030;-84
2021/12/27 12:20:36;;;;;;;41.38;25.27;;;;;;;9.35;73.48;100069.69;4961251;28;20045;-85
2021/12/27 12:23:21;;;;;;;40.63;25.13;;;;;;;9.22;73.34;100064.44;4952136;28;20046;-85
2021/12/27 12:26:06;;;;;;;29.38;17.50;;;;;;;9.12;74.31;100065.59;4966278;28;20047;-87
2021/12/27 12:29:02;;;;;;;40.67;24.50;;;;;;;9.48;73.34;100064.41;4959334;28;20051;-86
2021/12/27 12:31:52;;;;;;;26.33;16.65;;;;;;;9.61;72.39;100068.81;4963743;28;20053;-83
2021/12/27 12:34:41;;;;;;;41.53;24.88;;;;;;;9.24;74.04;100078.50;4985630;28;20554;-84
2021/12/27 12:37:26;;;;;;;37.80;23.00;;;;;;;9.53;73.29;100085.94;4973888;28;20049;-86
2021/12/27 12:40:12;;;;;;;30.65;19.13;;;;;;;9.55;73.26;100079.03;4984849;28;20053;-85
2021/12/27 12:42:57;;;;;;;37.65;24.88;;;;;;;9.76;72.19;100079.16;4961049;28;20058;-86
2021/12/27 12:45:42;;;;;;;28.63;17.25;;;;;;;9.84;71.50;100078.34;4956797;28;20046;-86
2021/12/27 12:48:28;;;;;;;30.25;17.83;;;;;;;9.90;71.05;100082.47;4973685;28;20047;-85